sensor_id;sensor_type;location;lat;lon;timestamp;pressure;altitude;pressure_sealevel;temperature;humidity
74372;BME280;62885;51.374;6.170;2024-02-21T00:01:24;63537.59;;;9.31;100.00
74372;BME280;62885;51.374;6.170;2024-02-21T00:03:49;63541.94;;;9.35;100.00
74372;BME280;62885;51.374;6.170;2024-02-21T00:06:15;63539.75;;;9.33;100.00
74372;BME280;62885;51.374;6.170;2024-02-21T00:08:40;63510.63;;;9.33;100.00
74372;BME280;62885;51.374;6.170;2024-02-21T00:11:05;63497.47;;;9.35;100.00
74372;BME280;62885;51.374;6.170;2024-02-21T00:13:31;63539.28;;;9.35;100.00
74372;BME280;62885;51.374;6.170;2024-02-21T00:15:57;63539.22;;;9.32;100.00
74372;BME280;62885;51.374;6.170;2024-02-21T00:18:22;63538.75;;;9.34;100.00
74372;BME280;62885;51.374;6.170;2024-02-21T00:20:47;63544.72;;;9.40;100.00
74372;BME280;62885;51.374;6.170;2024-02-21T00:23:13;63547.38;;;9.40;100.00
74372;BME280;62885;51.374;6.170;2024-02-21T00:25:38;63541.31;;;9.32;100.00
74372;BME280;62885;51.374;6.170;2024-02-21T00:28:04;63518.78;;;9.40;100.00
74372;BME280;62885;51.374;6.170;2024-02-21T00:30:31;63541.94;;;9.35;100.00
74372;BME280;62885;51.374;6.170;2024-02-21T00:32:56;63539.28;;;9.35;100.00
74372;BME280;62885;51.374;6.170;2024-02-21T00:35:21;63545.75;;;9.38;100.00
74372;BME280;62885;51.374;6.170;2024-02-21T00:37:47;63511.19;;;9.33;100.00
74372;BME280;62885;51.374;6.170;2024-02-21T00:40:12;63509.09;;;9.34;100.00
74372;BME280;62885;51.374;6.170;2024-02-21T00:42:38;63506.31;;;9.29;100.00
74372;BME280;62885;51.374;6.170;2024-02-21T00:45:03;63536.03;;;9.32;100.00
74372;BME280;62885;51.374;6.170;2024-02-21T00:47:29;63540.94;;;9.36;100.00
74372;BME280;62885;51.374;6.170;2024-02-21T00:49:54;63517.72;;;9.39;100.00
74372;BME280;62885;51.374;6.170;2024-02-21T00:52:20;63545.28;;;9.40;100.00
74372;BME280;62885;51.374;6.170;2024-02-21T00:54:45;63515.59;;;9.40;100.00
74372;BME280;62885;51.374;6.170;2024-02-21T00:57:11;63539.28;;;9.35;100.00
74372;BME280;62885;51.374;6.170;2024-02-21T00:59:37;63512.81;;;9.35;100.00
74372;BME280;62885;51.374;6.170;2024-02-21T01:02:03;63533.31;;;9.29;100.00
74372;BME280;62885;51.374;6.170;2024-02-21T01:04:28;63510.63;;;9.33;100.00
74372;BME280;62885;51.374;6.170;2024-02-21T01:06:53;63513.91;;;9.36;100.00
74372;BME280;62885;51.374;6.170;2024-02-21T01:09:19;63513.38;;;9.35;100.00
74372;BME280;62885;51.374;6.170;2024-02-21T01:11:44;63546.22;;;9.36;100.00
74372;BME280;62885;51.374;6.170;2024-02-21T01:14:09;63550.56;;;9.40;100.00
74372;BME280;62885;51.374;6.170;2024-02-21T01:16:36;63496.94;;;9.35;100.00
74372;BME280;62885;51.374;6.170;2024-02-21T01:19:01;63517.72;;;9.39;100.00
74372;BME280;62885;51.374;6.170;2024-02-21T01:21:27;63543.09;;;9.38;100.00
74372;BME280;62885;51.374;6.170;2024-02-21T01:23:52;63540.94;;;9.36;100.00
74372;BME280;62885;51.374;6.170;2024-02-21T01:26:17;63542.03;;;9.37;100.00
74372;BME280;62885;51.374;6.170;2024-02-21T01:28:43;63514.47;;;9.36;100.00
74372;BME280;62885;51.374;6.170;2024-02-21T01:31:08;63519.88;;;9.41;100.00
74372;BME280;62885;51.374;6.170;2024-02-21T01:33:34;63538.75;;;9.34;100.00
74372;BME280;62885;51.374;6.170;2024-02-21T01:36:04;63540.38;;;9.36;100.00
74372;BME280;62885;51.374;6.170;2024-02-21T01:38:32;63545.75;;;9.38;100.00
74372;BME280;62885;51.374;6.170;2024-02-21T01:41:00;63546.38;;;9.41;100.00
74372;BME280;62885;51.374;6.170;2024-02-21T01:43:25;63543.03;;;9.36;100.00
74372;BME280;62885;51.374;6.170;2024-02-21T01:45:54;63546.91;;;9.42;100.00
74372;BME280;62885;51.374;6.170;2024-02-21T01:48:21;63544.72;;;9.40;100.00
74372;BME280;62885;51.374;6.170;2024-02-21T01:50:47;63539.84;;;9.35;100.00
74372;BME280;62885;51.374;6.170;2024-02-21T01:53:17;63548.47;;;9.41;100.00
74372;BME280;62885;51.374;6.170;2024-02-21T01:55:47;63519.34;;;9.41;100.00
74372;BME280;62885;51.374;6.170;2024-02-21T01:58:16;63515.00;;;9.37;100.00
74372;BME280;62885;51.374;6.170;2024-02-21T02:00:43;63545.81;;;9.41;100.00
74372;BME280;62885;51.374;6.170;2024-02-21T02:03:12;63552.25;;;9.44;100.00
74372;BME280;62885;51.374;6.170;2024-02-21T02:05:48;63503.47;;;9.41;100.00
74372;BME280;62885;51.374;6.170;2024-02-21T02:08:19;63547.44;;;9.42;100.00
74372;BME280;62885;51.374;6.170;2024-02-21T02:10:45;63547.44;;;9.42;100.00
74372;BME280;62885;51.374;6.170;2024-02-21T02:13:13;63542.63;;;9.40;100.00
74372;BME280;62885;51.374;6.170;2024-02-21T02:15:44;63541.47;;;9.37;100.00
74372;BME280;62885;51.374;6.170;2024-02-21T02:18:11;63541.41;;;9.34;100.00
74372;BME280;62885;51.374;6.170;2024-02-21T02:20:37;63542.53;;;9.38;100.00
74372;BME280;62885;51.374;6.170;2024-02-21T02:25:47;63534.94;;;9.31;100.00
74372;BME280;62885;51.374;6.170;2024-02-21T02:28:19;63539.75;;;9.33;100.00
74372;BME280;62885;51.374;6.170;2024-02-21T02:30:45;63536.56;;;9.32;100.00
74372;BME280;62885;51.374;6.170;2024-02-21T02:33:10;63537.59;;;9.31;100.00
74372;BME280;62885;51.374;6.170;2024-02-21T02:35:35;63539.22;;;9.32;100.00
74372;BME280;62885;51.374;6.170;2024-02-21T02:38:02;63510.63;;;9.33;100.00
74372;BME280;62885;51.374;6.170;2024-02-21T02:40:28;63539.84;;;9.35;100.00
74372;BME280;62885;51.374;6.170;2024-02-21T02:42:53;63508.53;;;9.33;100.00
74372;BME280;62885;51.374;6.170;2024-02-21T02:45:21;63537.06;;;9.30;100.00
74372;BME280;62885;51.374;6.170;2024-02-21T02:47:47;63537.66;;;9.33;100.00
74372;BME280;62885;51.374;6.170;2024-02-21T02:50:13;63537.66;;;9.33;100.00
74372;BME280;62885;51.374;6.170;2024-02-21T02:52:39;63539.28;;;9.35;100.00
74372;BME280;62885;51.374;6.170;2024-02-21T02:55:05;63532.31;;;9.31;100.00
74372;BME280;62885;51.374;6.170;2024-02-21T02:57:31;63534.41;;;9.30;100.00
74372;BME280;62885;51.374;6.170;2024-02-21T02:59:56;63500.31;;;9.23;100.00
74372;BME280;62885;51.374;6.170;2024-02-21T03:02:21;63503.06;;;9.26;100.00
74372;BME280;62885;51.374;6.170;2024-02-21T03:04:47;63535.41;;;9.29;100.00
74372;BME280;62885;51.374;6.170;2024-02-21T03:07:17;63531.13;;;9.27;100.00
74372;BME280;62885;51.374;6.170;2024-02-21T03:09:42;63483.91;;;9.23;100.00
74372;BME280;62885;51.374;6.170;2024-02-21T03:12:10;63533.88;;;9.30;100.00
74372;BME280;62885;51.374;6.170;2024-02-21T03:14:36;63531.13;;;9.27;100.00
74372;BME280;62885;51.374;6.170;2024-02-21T03:17:02;63535.50;;;9.31;100.00
74372;BME280;62885;51.374;6.170;2024-02-21T03:19:28;63532.22;;;9.28;100.00
74372;BME280;62885;51.374;6.170;2024-02-21T03:21:54;63530.59;;;9.27;100.00
74372;BME280;62885;51.374;6.170;2024-02-21T03:24:20;63537.06;;;9.30;100.00
74372;BME280;62885;51.374;6.170;2024-02-21T03:26:46;63531.00;;;9.22;100.00
74372;BME280;62885;51.374;6.170;2024-02-21T03:29:14;63531.63;;;9.25;100.00
74372;BME280;62885;51.374;6.170;2024-02-21T03:31:40;63532.16;;;9.26;100.00
74372;BME280;62885;51.374;6.170;2024-02-21T03:34:05;63536.50;;;9.30;100.00
74372;BME280;62885;51.374;6.170;2024-02-21T03:36:30;63530.53;;;9.24;100.00
74372;BME280;62885;51.374;6.170;2024-02-21T03:38:56;63525.66;;;9.20;100.00
74372;BME280;62885;51.374;6.170;2024-02-21T03:41:21;63525.09;;;9.19;100.00
74372;BME280;62885;51.374;6.170;2024-02-21T03:43:47;63524.56;;;9.19;100.00
74372;BME280;62885;51.374;6.170;2024-02-21T03:46:12;63523.00;;;9.20;100.00
74372;BME280;62885;51.374;6.170;2024-02-21T03:48:37;63522.47;;;9.19;100.00
74372;BME280;62885;51.374;6.170;2024-02-21T03:51:03;63526.25;;;9.23;100.00
74372;BME280;62885;51.374;6.170;2024-02-21T03:53:29;63531.06;;;9.25;100.00
74372;BME280;62885;51.374;6.170;2024-02-21T03:55:55;63527.88;;;9.24;100.00
74372;BME280;62885;51.374;6.170;2024-02-21T03:58:21;63520.81;;;9.18;100.00
74372;BME280;62885;51.374;6.170;2024-02-21T04:00:47;63530.53;;;9.24;100.00
74372;BME280;62885;51.374;6.170;2024-02-21T04:03:13;63530.00;;;9.24;100.00
74372;BME280;62885;51.374;6.170;2024-02-21T04:05:38;63500.31;;;9.23;100.00
74372;BME280;62885;51.374;6.170;2024-02-21T04:08:07;63534.41;;;9.30;100.00
74372;BME280;62885;51.374;6.170;2024-02-21T04:10:33;63536.50;;;9.30;100.00
74372;BME280;62885;51.374;6.170;2024-02-21T04:12:58;63538.16;;;9.31;100.00
74372;BME280;62885;51.374;6.170;2024-02-21T04:15:24;63531.69;;;9.28;100.00
74372;BME280;62885;51.374;6.170;2024-02-21T04:17:49;63533.78;;;9.27;100.00
74372;BME280;62885;51.374;6.170;2024-02-21T04:20:16;63529.53;;;9.26;100.00
74372;BME280;62885;51.374;6.170;2024-02-21T04:22:45;63531.06;;;9.25;100.00
74372;BME280;62885;51.374;6.170;2024-02-21T04:25:11;63524.06;;;9.21;100.00
74372;BME280;62885;51.374;6.170;2024-02-21T04:27:38;63527.81;;;9.22;100.00
74372;BME280;62885;51.374;6.170;2024-02-21T04:30:04;63519.19;;;9.16;100.00
74372;BME280;62885;51.374;6.170;2024-02-21T04:32:29;63493.25;;;9.17;100.00
74372;BME280;62885;51.374;6.170;2024-02-21T04:34:55;63527.34;;;9.24;100.00
74372;BME280;62885;51.374;6.170;2024-02-21T04:37:20;63524.56;;;9.19;100.00
74372;BME280;62885;51.374;6.170;2024-02-21T04:39:46;63503.06;;;9.26;100.00
74372;BME280;62885;51.374;6.170;2024-02-21T04:42:11;63523.00;;;9.20;100.00
74372;BME280;62885;51.374;6.170;2024-02-21T04:44:37;63526.25;;;9.23;100.00
74372;BME280;62885;51.374;6.170;2024-02-21T04:47:03;63526.25;;;9.23;100.00
74372;BME280;62885;51.374;6.170;2024-02-21T04:49:29;63521.91;;;9.19;100.00
74372;BME280;62885;51.374;6.170;2024-02-21T04:51:55;63494.91;;;9.18;100.00
74372;BME280;62885;51.374;6.170;2024-02-21T04:54:20;63519.19;;;9.16;100.00
74372;BME280;62885;51.374;6.170;2024-02-21T04:56:45;63515.38;;;9.13;100.00
74372;BME280;62885;51.374;6.170;2024-02-21T04:59:11;63522.47;;;9.19;100.00
74372;BME280;62885;51.374;6.170;2024-02-21T05:01:36;63476.28;;;9.16;100.00
74372;BME280;62885;51.374;6.170;2024-02-21T05:04:01;63492.72;;;9.16;100.00
74372;BME280;62885;51.374;6.170;2024-02-21T05:06:27;63487.84;;;9.12;100.00
74372;BME280;62885;51.374;6.170;2024-02-21T05:08:53;63522.31;;;9.14;100.00
74372;BME280;62885;51.374;6.170;2024-02-21T05:11:20;63518.63;;;9.16;100.00
74372;BME280;62885;51.374;6.170;2024-02-21T05:13:45;63525.16;;;9.22;100.00
74372;BME280;62885;51.374;6.170;2024-02-21T05:16:11;63517.03;;;9.14;100.00
74372;BME280;62885;51.374;6.170;2024-02-21T05:18:36;63520.19;;;9.15;100.00
74372;BME280;62885;51.374;6.170;2024-02-21T05:21:02;63471.41;;;9.11;100.00
74372;BME280;62885;51.374;6.170;2024-02-21T05:23:27;63521.84;;;9.16;100.00
74372;BME280;62885;51.374;6.170;2024-02-21T05:25:52;63513.22;;;9.11;100.00
74372;BME280;62885;51.374;6.170;2024-02-21T05:28:18;63517.53;;;9.15;100.00
74372;BME280;62885;51.374;6.170;2024-02-21T05:30:43;63520.28;;;9.17;100.00
74372;BME280;62885;51.374;6.170;2024-02-21T05:33:08;63523.00;;;9.20;100.00
74372;BME280;62885;51.374;6.170;2024-02-21T05:35:34;63522.91;;;9.17;100.00
74372;BME280;62885;51.374;6.170;2024-02-21T05:38:00;63513.06;;;9.05;100.00
74372;BME280;62885;51.374;6.170;2024-02-21T05:40:25;63513.22;;;9.11;100.00
74372;BME280;62885;51.374;6.170;2024-02-21T05:42:52;63487.84;;;9.12;100.00
74372;BME280;62885;51.374;6.170;2024-02-21T05:45:18;63515.94;;;9.13;100.00
74372;BME280;62885;51.374;6.170;2024-02-21T05:47:44;63522.47;;;9.19;100.00
74372;BME280;62885;51.374;6.170;2024-02-21T05:50:12;63521.28;;;9.16;100.00
74372;BME280;62885;51.374;6.170;2024-02-21T05:52:37;63521.28;;;9.16;100.00
74372;BME280;62885;51.374;6.170;2024-02-21T05:55:03;63525.09;;;9.19;100.00
74372;BME280;62885;51.374;6.170;2024-02-21T05:57:28;63520.19;;;9.15;100.00
74372;BME280;62885;51.374;6.170;2024-02-21T05:59:54;63520.75;;;9.15;100.00
74372;BME280;62885;51.374;6.170;2024-02-21T06:02:19;63511.66;;;9.12;100.00
74372;BME280;62885;51.374;6.170;2024-02-21T06:04:45;63521.91;;;9.19;100.00
74372;BME280;62885;51.374;6.170;2024-02-21T06:07:11;63524.00;;;9.18;100.00
74372;BME280;62885;51.374;6.170;2024-02-21T06:09:37;63522.91;;;9.17;100.00
74372;BME280;62885;51.374;6.170;2024-02-21T06:12:02;63522.91;;;9.17;100.00
74372;BME280;62885;51.374;6.170;2024-02-21T06:14:28;63528.91;;;9.23;100.00
74372;BME280;62885;51.374;6.170;2024-02-21T06:16:53;63526.16;;;9.20;100.00
74372;BME280;62885;51.374;6.170;2024-02-21T06:19:18;63511.03;;;9.08;100.00
74372;BME280;62885;51.374;6.170;2024-02-21T06:21:44;63523.00;;;9.20;100.00
74372;BME280;62885;51.374;6.170;2024-02-21T06:24:09;63531.06;;;9.25;100.00
74372;BME280;62885;51.374;6.170;2024-02-21T06:26:34;63500.88;;;9.24;100.00
74372;BME280;62885;51.374;6.170;2024-02-21T06:29:00;63499.88;;;9.25;100.00
74372;BME280;62885;51.374;6.170;2024-02-21T06:31:27;63531.63;;;9.25;100.00
74372;BME280;62885;51.374;6.170;2024-02-21T06:33:53;63519.19;;;9.16;100.00
74372;BME280;62885;51.374;6.170;2024-02-21T06:36:18;63478.47;;;9.18;100.00
74372;BME280;62885;51.374;6.170;2024-02-21T06:38:43;63528.91;;;9.23;100.00
74372;BME280;62885;51.374;6.170;2024-02-21T06:41:18;63528.44;;;9.25;100.00
74372;BME280;62885;51.374;6.170;2024-02-21T06:43:45;63526.78;;;9.23;100.00
74372;BME280;62885;51.374;6.170;2024-02-21T06:46:11;63519.19;;;9.16;100.00
74372;BME280;62885;51.374;6.170;2024-02-21T06:48:37;63530.53;;;9.24;100.00
74372;BME280;62885;51.374;6.170;2024-02-21T06:51:03;63497.06;;;9.20;100.00
74372;BME280;62885;51.374;6.170;2024-02-21T06:53:29;63523.00;;;9.20;100.00
74372;BME280;62885;51.374;6.170;2024-02-21T06:55:54;63522.47;;;9.19;100.00
74372;BME280;62885;51.374;6.170;2024-02-21T06:58:19;63522.84;;;9.15;100.00
74372;BME280;62885;51.374;6.170;2024-02-21T07:00:45;63526.13;;;9.18;100.00
74372;BME280;62885;51.374;6.170;2024-02-21T07:03:10;63526.72;;;9.21;100.00
74372;BME280;62885;51.374;6.170;2024-02-21T07:05:35;63525.09;;;9.19;100.00
74372;BME280;62885;51.374;6.170;2024-02-21T07:08:01;63522.47;;;9.19;100.00
74372;BME280;62885;51.374;6.170;2024-02-21T07:10:26;63527.81;;;9.22;100.00
74372;BME280;62885;51.374;6.170;2024-02-21T07:12:54;63531.06;;;9.25;100.00
74372;BME280;62885;51.374;6.170;2024-02-21T07:15:20;63527.81;;;9.22;100.00
74372;BME280;62885;51.374;6.170;2024-02-21T07:17:45;63532.22;;;9.28;100.00
74372;BME280;62885;51.374;6.170;2024-02-21T07:20:10;63532.69;;;9.26;100.00
74372;BME280;62885;51.374;6.170;2024-02-21T07:22:36;63533.25;;;9.27;100.00
74372;BME280;62885;51.374;6.170;2024-02-21T07:25:01;63497.59;;;9.21;100.00
74372;BME280;62885;51.374;6.170;2024-02-21T07:27:27;63531.00;;;9.22;100.00
74372;BME280;62885;51.374;6.170;2024-02-21T07:29:56;63538.66;;;9.32;100.00
74372;BME280;62885;51.374;6.170;2024-02-21T07:32:21;63536.03;;;9.32;100.00
74372;BME280;62885;51.374;6.170;2024-02-21T07:34:46;63535.97;;;9.29;100.00
74372;BME280;62885;51.374;6.170;2024-02-21T07:37:14;63538.75;;;9.34;100.00
74372;BME280;62885;51.374;6.170;2024-02-21T07:39:40;63528.44;;;9.25;100.00
74372;BME280;62885;51.374;6.170;2024-02-21T07:42:06;63535.88;;;9.27;100.00
74372;BME280;62885;51.374;6.170;2024-02-21T07:44:32;63539.69;;;9.30;100.00
74372;BME280;62885;51.374;6.170;2024-02-21T07:46:57;63541.47;;;9.37;100.00
74372;BME280;62885;51.374;6.170;2024-02-21T07:49:23;63535.50;;;9.31;100.00
74372;BME280;62885;51.374;6.170;2024-02-21T07:51:48;63538.19;;;9.34;100.00
74372;BME280;62885;51.374;6.170;2024-02-21T07:54:13;63546.97;;;9.44;100.00
74372;BME280;62885;51.374;6.170;2024-02-21T07:56:39;63551.66;;;9.41;100.00
74372;BME280;62885;51.374;6.170;2024-02-21T07:59:04;63537.13;;;9.33;100.00
74372;BME280;62885;51.374;6.170;2024-02-21T08:01:30;63538.75;;;9.34;100.00
74372;BME280;62885;51.374;6.170;2024-02-21T08:03:55;63544.72;;;9.40;100.00
74372;BME280;62885;51.374;6.170;2024-02-21T08:06:20;63543.63;;;9.39;100.00
74372;BME280;62885;51.374;6.170;2024-02-21T08:08:46;63525.72;;;9.22;100.00
74372;BME280;62885;51.374;6.170;2024-02-21T08:11:11;63506.84;;;9.29;100.00
74372;BME280;62885;51.374;6.170;2024-02-21T08:13:36;63538.75;;;9.34;100.00
74372;BME280;62885;51.374;6.170;2024-02-21T08:16:02;63543.03;;;9.36;100.00
74372;BME280;62885;51.374;6.170;2024-02-21T08:18:28;63541.41;;;9.34;100.00
74372;BME280;62885;51.374;6.170;2024-02-21T08:20:53;63534.47;;;9.33;100.00
74372;BME280;62885;51.374;6.170;2024-02-21T08:23:19;63529.53;;;9.26;100.00
74372;BME280;62885;51.374;6.170;2024-02-21T08:25:44;63537.06;;;9.30;100.00
74372;BME280;62885;51.374;6.170;2024-02-21T08:28:10;63533.31;;;9.29;100.00
74372;BME280;62885;51.374;6.170;2024-02-21T08:30:35;63550.09;;;9.42;100.00
74372;BME280;62885;51.374;6.170;2024-02-21T08:33:00;63489.34;;;9.28;100.00
74372;BME280;62885;51.374;6.170;2024-02-21T08:35:26;63533.78;;;9.27;100.00
74372;BME280;62885;51.374;6.170;2024-02-21T08:37:51;63535.50;;;9.31;100.00
74372;BME280;62885;51.374;6.170;2024-02-21T08:40:16;63540.38;;;9.36;100.00
74372;BME280;62885;51.374;6.170;2024-02-21T08:42:46;63518.78;;;9.40;100.00
74372;BME280;62885;51.374;6.170;2024-02-21T08:45:12;63546.38;;;9.41;100.00
74372;BME280;62885;51.374;6.170;2024-02-21T08:47:41;63552.34;;;9.47;100.00
74372;BME280;62885;51.374;6.170;2024-02-21T08:50:07;63547.31;;;9.37;100.00
74372;BME280;62885;51.374;6.170;2024-02-21T08:52:34;63549.56;;;9.42;100.00
74372;BME280;62885;51.374;6.170;2024-02-21T08:55:00;63538.19;;;9.34;100.00
74372;BME280;62885;51.374;6.170;2024-02-21T08:57:25;63498.03;;;9.36;100.00
74372;BME280;62885;51.374;6.170;2024-02-21T08:59:50;63544.13;;;9.37;100.00
74372;BME280;62885;51.374;6.170;2024-02-21T09:02:16;63552.25;;;9.44;100.00
74372;BME280;62885;51.374;6.170;2024-02-21T09:04:41;63535.50;;;9.31;100.00
74372;BME280;62885;51.374;6.170;2024-02-21T09:07:07;63531.69;;;9.28;100.00
74372;BME280;62885;51.374;6.170;2024-02-21T09:09:32;63533.31;;;9.29;100.00
74372;BME280;62885;51.374;6.170;2024-02-21T09:11:58;63543.03;;;9.36;100.00
74372;BME280;62885;51.374;6.170;2024-02-21T09:14:33;63534.41;;;9.30;100.00
74372;BME280;62885;51.374;6.170;2024-02-21T09:16:59;63527.88;;;9.24;100.00
74372;BME280;62885;51.374;6.170;2024-02-21T09:19:24;63524.06;;;9.21;100.00
74372;BME280;62885;51.374;6.170;2024-02-21T09:21:50;63546.22;;;9.36;100.00
74372;BME280;62885;51.374;6.170;2024-02-21T09:24:15;63485.53;;;9.24;100.00
74372;BME280;62885;51.374;6.170;2024-02-21T09:26:40;63503.06;;;9.26;100.00
74372;BME280;62885;51.374;6.170;2024-02-21T09:29:06;63513.22;;;9.11;100.00
74372;BME280;62885;51.374;6.170;2024-02-21T09:31:31;63519.19;;;9.16;100.00
74372;BME280;62885;51.374;6.170;2024-02-21T09:33:57;63515.94;;;9.13;100.00
74372;BME280;62885;51.374;6.170;2024-02-21T09:36:22;63538.59;;;9.29;100.00
74372;BME280;62885;51.374;6.170;2024-02-21T09:38:47;63538.19;;;9.34;100.00
74372;BME280;62885;51.374;6.170;2024-02-21T09:41:25;63543.03;;;9.36;100.00
74372;BME280;62885;51.374;6.170;2024-02-21T09:43:50;63541.94;;;9.35;100.00
74372;BME280;62885;51.374;6.170;2024-02-21T09:46:19;63538.66;;;9.32;100.00
74372;BME280;62885;51.374;6.170;2024-02-21T09:49:12;63556.69;;;9.51;100.00
74372;BME280;62885;51.374;6.170;2024-02-21T09:51:41;63513.22;;;9.50;100.00
74372;BME280;62885;51.374;6.170;2024-02-21T09:54:07;63552.88;;;9.47;100.00
74372;BME280;62885;51.374;6.170;2024-02-21T09:56:33;63559.31;;;9.51;100.00
74372;BME280;62885;51.374;6.170;2024-02-21T09:58:59;63569.19;;;9.63;100.00
74372;BME280;62885;51.374;6.170;2024-02-21T10:01:24;63576.78;;;9.70;100.00
74372;BME280;62885;51.374;6.170;2024-02-21T10:03:50;63577.25;;;9.68;100.00
74372;BME280;62885;51.374;6.170;2024-02-21T10:06:16;63569.72;;;9.63;100.00
74372;BME280;62885;51.374;6.170;2024-02-21T10:08:41;63550.31;;;9.70;100.00
74372;BME280;62885;51.374;6.170;2024-02-21T10:11:06;63594.13;;;9.83;100.00
74372;BME280;62885;51.374;6.170;2024-02-21T10:13:34;63594.19;;;9.86;100.00
74372;BME280;62885;51.374;6.170;2024-02-21T10:16:04;63604.00;;;9.95;100.00
74372;BME280;62885;51.374;6.170;2024-02-21T10:18:30;63608.88;;;10.00;100.00
74372;BME280;62885;51.374;6.170;2024-02-21T10:21:02;63609.44;;;10.00;100.00
74372;BME280;62885;51.374;6.170;2024-02-21T10:23:29;63605.06;;;9.96;100.00
74372;BME280;62885;51.374;6.170;2024-02-21T10:25:54;63616.50;;;10.07;100.00
74372;BME280;62885;51.374;6.170;2024-02-21T10:28:19;63623.56;;;10.13;100.00
74372;BME280;62885;51.374;6.170;2024-02-21T10:30:51;63636.69;;;10.28;100.00
74372;BME280;62885;51.374;6.170;2024-02-21T10:33:17;63649.13;;;10.37;99.86
74372;BME280;62885;51.374;6.170;2024-02-21T10:35:46;63655.13;;;10.43;99.38
74372;BME280;62885;51.374;6.170;2024-02-21T10:38:12;63626.44;;;10.41;98.79
74372;BME280;62885;51.374;6.170;2024-02-21T10:40:38;63654.53;;;10.40;98.22
74372;BME280;62885;51.374;6.170;2024-02-21T10:43:05;63656.16;;;10.41;98.81
74372;BME280;62885;51.374;6.170;2024-02-21T10:45:35;63670.22;;;10.52;97.92
74372;BME280;62885;51.374;6.170;2024-02-21T10:48:10;63661.03;;;10.46;97.74
74372;BME280;62885;51.374;6.170;2024-02-21T10:50:55;63671.94;;;10.56;97.61
74372;BME280;62885;51.374;6.170;2024-02-21T10:53:38;63680.63;;;10.64;96.88
74372;BME280;62885;51.374;6.170;2024-02-21T10:58:43;63689.88;;;10.73;96.15
74372;BME280;62885;51.374;6.170;2024-02-21T11:01:09;63677.44;;;10.63;96.99
74372;BME280;62885;51.374;6.170;2024-02-21T11:03:35;63701.94;;;10.86;96.39
74372;BME280;62885;51.374;6.170;2024-02-21T11:06:01;63698.66;;;10.83;95.80
74372;BME280;62885;51.374;6.170;2024-02-21T11:08:27;63692.13;;;10.77;96.34
74372;BME280;62885;51.374;6.170;2024-02-21T11:10:57;63711.13;;;10.92;95.81
74372;BME280;62885;51.374;6.170;2024-02-21T11:13:30;63680.81;;;10.91;94.94
74372;BME280;62885;51.374;6.170;2024-02-21T11:16:07;63720.97;;;11.04;95.23
74372;BME280;62885;51.374;6.170;2024-02-21T11:18:34;63711.19;;;10.95;94.18
74372;BME280;62885;51.374;6.170;2024-02-21T11:20:59;63701.94;;;10.86;94.85
74372;BME280;62885;51.374;6.170;2024-02-21T11:23:28;63694.84;;;10.80;95.57
74372;BME280;62885;51.374;6.170;2024-02-21T11:26:06;63668.19;;;10.94;95.28
74372;BME280;62885;51.374;6.170;2024-02-21T11:28:32;63727.38;;;11.05;95.69
74372;BME280;62885;51.374;6.170;2024-02-21T11:31:13;63723.72;;;11.06;94.36
74372;BME280;62885;51.374;6.170;2024-02-21T11:33:42;63710.19;;;11.19;94.03
74372;BME280;62885;51.374;6.170;2024-02-21T11:36:25;63723.16;;;11.06;94.01
74372;BME280;62885;51.374;6.170;2024-02-21T11:38:51;63720.97;;;11.04;94.73
74372;BME280;62885;51.374;6.170;2024-02-21T11:41:18;63725.88;;;11.08;94.22
74372;BME280;62885;51.374;6.170;2024-02-21T11:43:43;63687.91;;;10.98;95.04
74372;BME280;62885;51.374;6.170;2024-02-21T11:46:09;63683.94;;;11.09;94.64
74372;BME280;62885;51.374;6.170;2024-02-21T11:48:34;63719.88;;;11.03;95.04
74372;BME280;62885;51.374;6.170;2024-02-21T11:50:59;63729.69;;;11.12;94.27
74372;BME280;62885;51.374;6.170;2024-02-21T11:53:26;63734.59;;;11.17;94.36
74372;BME280;62885;51.374;6.170;2024-02-21T11:55:56;63747.13;;;11.28;93.26
74372;BME280;62885;51.374;6.170;2024-02-21T11:58:22;63753.66;;;11.34;93.29
74372;BME280;62885;51.374;6.170;2024-02-21T12:00:48;63737.94;;;11.22;93.55
74372;BME280;62885;51.374;6.170;2024-02-21T12:03:13;63715.50;;;11.38;93.25
74372;BME280;62885;51.374;6.170;2024-02-21T12:05:41;63765.09;;;11.45;92.83
74372;BME280;62885;51.374;6.170;2024-02-21T12:08:06;63738.91;;;11.60;92.58
74372;BME280;62885;51.374;6.170;2024-02-21T12:10:31;63776.66;;;11.80;91.25
74372;BME280;62885;51.374;6.170;2024-02-21T12:13:08;63813.03;;;11.89;90.41
74372;BME280;62885;51.374;6.170;2024-02-21T12:15:34;63821.69;;;11.95;90.17
74372;BME280;62885;51.374;6.170;2024-02-21T12:18:00;63818.47;;;11.94;89.33
74372;BME280;62885;51.374;6.170;2024-02-21T12:20:25;63835.84;;;12.08;88.66
74372;BME280;62885;51.374;6.170;2024-02-21T12:22:51;63813.03;;;11.89;88.51
74372;BME280;62885;51.374;6.170;2024-02-21T12:25:19;63814.06;;;11.88;89.92
74372;BME280;62885;51.374;6.170;2024-02-21T12:27:45;63832.16;;;12.10;88.72
74372;BME280;62885;51.374;6.170;2024-02-21T12:30:11;63786.84;;;12.05;88.72
74372;BME280;62885;51.374;6.170;2024-02-21T12:32:36;63839.13;;;12.11;87.77
74372;BME280;62885;51.374;6.170;2024-02-21T12:35:02;63836.94;;;12.09;88.10
74372;BME280;62885;51.374;6.170;2024-02-21T12:37:28;63790.09;;;12.08;88.25
74372;BME280;62885;51.374;6.170;2024-02-21T12:39:54;63801.53;;;12.18;87.81
74372;BME280;62885;51.374;6.170;2024-02-21T12:42:19;63857.16;;;12.30;86.97
74372;BME280;62885;51.374;6.170;2024-02-21T12:44:44;63861.53;;;12.34;86.95
74372;BME280;62885;51.374;6.170;2024-02-21T12:47:11;63856.63;;;12.30;86.03
74372;BME280;62885;51.374;6.170;2024-02-21T12:49:36;63808.06;;;12.24;86.24
74372;BME280;62885;51.374;6.170;2024-02-21T12:52:01;63823.31;;;12.39;84.80
74372;BME280;62885;51.374;6.170;2024-02-21T12:54:28;63825.13;;;12.25;84.94
74372;BME280;62885;51.374;6.170;2024-02-21T12:56:55;63868.59;;;12.41;84.62
74372;BME280;62885;51.374;6.170;2024-02-21T12:59:20;63828.22;;;12.43;84.86
74372;BME280;62885;51.374;6.170;2024-02-21T13:01:46;63884.97;;;12.56;84.05